Time;durP1;ratioP1;P1;durP2;ratioP2;P2;SDS_P1;SDS_P2;PMS_P1;PMS_P2;Temp;Humidity;BMP_temperature;BMP_pressure;BME280_temperature;BME280_humidity;BME280_pressure;Samples;Min_cycle;Max_cycle;Signal;HPM_P1;HPM_P2
2022/02/03 00:00:47;;;;;;;6.95;1.35;;;3.40;91.80;;;;;;4971731;28;20038;-74
2022/02/03 00:03:19;;;;;;;7.80;1.40;;;3.40;92.00;;;;;;4971562;28;20097;-74
2022/02/03 00:05:53;;;;;;;5.70;1.52;;;3.40;91.90;;;;;;4974767;28;20030;-74
2022/02/03 00:16:43;;;;;;;8.57;1.02;;;3.30;92.00;;;;;;4968897;28;20033;-73
2022/02/03 00:25:28;;;;;;;10.23;1.65;;;3.20;92.10;;;;;;4971846;28;20034;-74
2022/02/03 00:28:07;;;;;;;10.43;1.63;;;3.20;92.10;;;;;;4959579;28;20637;-74
2022/02/03 00:38:27;;;;;;;8.70;1.60;;;3.10;92.40;;;;;;4988378;28;20050;-74
2022/02/03 00:49:12;;;;;;;12.60;1.88;;;3.10;92.40;;;;;;4986945;28;20561;-73
2022/02/03 00:51:46;;;;;;;9.20;1.17;;;3.10;92.40;;;;;;4969886;28;20521;-74
2022/02/03 00:54:12;;;;;;;6.47;0.90;;;3.00;92.40;;;;;;4982608;28;20034;-74
2022/02/03 00:56:40;;;;;;;10.20;1.42;;;3.00;92.40;;;;;;4972328;28;20044;-73
2022/02/03 00:59:09;;;;;;;8.18;1.67;;;3.00;92.40;;;;;;4976554;28;20026;-73
2022/02/03 01:01:38;;;;;;;19.92;2.33;;;3.10;92.50;;;;;;4978440;28;20641;-74
2022/02/03 01:04:12;;;;;;;10.52;2.38;;;3.10;92.50;;;;;;4966446;28;20109;-74
2022/02/03 01:06:47;;;;;;;8.68;1.33;;;3.10;92.50;;;;;;4972741;28;20041;-74
2022/02/03 01:09:16;;;;;;;7.57;1.08;;;3.10;92.40;;;;;;4987889;28;20030;-74
2022/02/03 01:11:46;;;;;;;4.07;0.82;;;3.10;92.40;;;;;;4969064;28;20035;-74
2022/02/03 01:14:22;;;;;;;4.82;1.27;;;3.10;92.20;;;;;;4973549;28;20201;-74
2022/02/03 01:44:06;;;;;;;11.87;1.50;;;3.70;92.20;;;;;;4970565;28;20110;-74
2022/02/03 01:47:00;;;;;;;7.57;1.25;;;3.80;92.20;;;;;;4982631;28;20289;-73
2022/02/03 01:52:32;;;;;;;12.15;2.03;;;3.80;92.00;;;;;;4974719;28;20038;-74
2022/02/03 01:54:59;;;;;;;11.85;1.38;;;3.90;92.00;;;;;;4974825;28;20058;-73
2022/02/03 01:57:36;;;;;;;7.65;1.30;;;4.00;91.90;;;;;;4964704;28;20023;-73
2022/02/03 02:00:11;;;;;;;9.35;1.50;;;4.00;91.70;;;;;;4968366;28;20034;-73
2022/02/03 02:03:04;;;;;;;8.55;1.40;;;4.10;91.60;;;;;;4966943;28;20125;-73
2022/02/03 02:05:30;;;;;;;10.25;1.83;;;4.10;91.60;;;;;;4970985;28;20049;-73
2022/02/03 02:08:14;;;;;;;11.20;1.17;;;4.10;91.50;;;;;;4975123;28;20026;-73
2022/02/03 02:11:28;;;;;;;9.25;1.10;;;4.20;91.70;;;;;;4970583;28;20230;-74
2022/02/03 02:17:25;;;;;;;11.15;1.90;;;4.20;91.50;;;;;;4961831;28;20081;-74
2022/02/03 02:39:53;;;;;;;5.40;1.55;;;4.40;90.90;;;;;;4972816;28;20080;-74
2022/02/03 02:45:06;;;;;;;9.88;1.40;;;4.40;91.20;;;;;;4990630;28;20018;-74
2022/02/03 02:47:54;;;;;;;10.63;2.03;;;4.40;91.10;;;;;;4974967;28;20480;-73
2022/02/03 02:50:49;;;;;;;7.13;1.38;;;4.40;91.10;;;;;;4977713;28;20030;-73
2022/02/03 02:59:38;;;;;;;7.90;2.17;;;4.50;90.90;;;;;;4974563;28;20031;-74
2022/02/03 03:32:29;;;;;;;13.65;1.33;;;4.70;90.60;;;;;;4975921;28;20111;-74
2022/02/03 03:35:12;;;;;;;5.28;1.40;;;4.70;90.70;;;;;;4969086;28;20070;-73
2022/02/03 03:37:46;;;;;;;10.10;1.45;;;4.70;90.80;;;;;;4970626;28;20128;-74
2022/02/03 03:40:13;;;;;;;6.00;1.20;;;4.70;90.70;;;;;;4992158;28;20455;-73
2022/02/03 03:42:51;;;;;;;7.50;1.30;;;4.70;90.70;;;;;;4971718;28;20031;-74
2022/02/03 03:45:19;;;;;;;8.48;1.77;;;4.70;90.70;;;;;;4975122;28;20030;-73
2022/02/03 03:47:47;;;;;;;10.00;1.70;;;4.70;90.60;;;;;;4973799;28;20059;-73
2022/02/03 03:50:16;;;;;;;10.57;1.73;;;4.80;90.60;;;;;;4975836;28;20034;-73
2022/02/03 03:53:15;;;;;;;9.43;1.90;;;4.80;90.80;;;;;;4973437;28;20119;-74
2022/02/03 04:33:39;;;;;;;16.45;1.95;;;4.90;89.50;;;;;;4971676;28;20038;-74
2022/02/03 04:45:41;;;;;;;11.48;1.92;;;4.70;90.20;;;;;;4966631;28;20412;-74
2022/02/03 05:03:36;;;;;;;6.63;1.27;;;4.60;90.00;;;;;;4984340;28;20813;-74
2022/02/03 05:06:33;;;;;;;9.05;1.58;;;4.50;90.00;;;;;;4969306;28;20027;-74
2022/02/03 05:12:39;;;;;;;11.70;1.50;;;4.30;90.60;;;;;;4989268;28;20150;-74
2022/02/03 05:15:51;;;;;;;13.25;1.88;;;4.30;90.70;;;;;;4975974;28;20122;-74
2022/02/03 05:21:56;;;;;;;7.90;1.83;;;4.30;90.50;;;;;;4967126;28;20078;-74
2022/02/03 05:42:08;;;;;;;6.13;1.67;;;4.50;87.50;;;;;;4971465;28;20027;-74
2022/02/03 05:51:06;;;;;;;5.75;1.42;;;4.60;87.10;;;;;;4985895;28;20053;-74
2022/02/03 06:14:12;;;;;;;10.68;1.42;;;4.70;87.10;;;;;;4976476;28;20796;-73
2022/02/03 06:22:22;;;;;;;9.25;2.35;;;4.70;87.30;;;;;;4977309;28;20430;-74
2022/02/03 06:27:23;;;;;;;8.07;1.45;;;4.70;87.00;;;;;;4975646;28;20086;-73
2022/02/03 06:27:39;;;;;;;9.27;1.73;;;4.60;87.30;;;;;;4977181;28;20038;-74
2022/02/03 06:30:07;;;;;;;7.00;1.67;;;4.60;87.60;;;;;;4978573;28;20029;-74
2022/02/03 06:32:33;;;;;;;10.95;1.75;;;4.50;88.50;;;;;;4979727;28;20042;-74
2022/02/03 06:34:58;;;;;;;7.60;1.95;;;4.50;88.00;;;;;;4981242;28;20045;-74
2022/02/03 06:37:27;;;;;;;12.30;1.30;;;4.60;88.60;;;;;;4974487;28;20068;-74
2022/02/03 06:39:53;;;;;;;6.07;1.40;;;4.60;88.60;;;;;;4979539;28;20030;-74
2022/02/03 06:42:19;;;;;;;10.18;1.77;;;4.60;88.80;;;;;;4989853;28;20034;-73
2022/02/03 06:45:12;;;;;;;3.58;1.08;;;4.60;88.60;;;;;;4975784;28;20546;-73
2022/02/03 06:47:45;;;;;;;16.13;3.10;;;4.70;88.50;;;;;;4971434;28;20043;-74
2022/02/03 06:50:26;;;;;;;9.07;2.10;;;4.60;88.60;;;;;;4979256;28;20281;-74
2022/02/03 06:55:44;;;;;;;9.00;1.50;;;4.70;88.30;;;;;;4974329;28;20043;-74
2022/02/03 06:58:20;;;;;;;6.55;1.65;;;4.80;87.70;;;;;;4976044;28;20049;-74
2022/02/03 07:01:03;;;;;;;10.73;1.90;;;4.70;87.90;;;;;;4974346;28;20034;-74
2022/02/03 07:03:32;;;;;;;6.75;1.17;;;4.70;87.90;;;;;;4975338;28;20129;-74
2022/02/03 07:05:58;;;;;;;15.80;1.88;;;4.70;88.50;;;;;;4971316;28;20054;-74
2022/02/03 07:08:25;;;;;;;7.07;1.50;;;4.70;88.70;;;;;;4977143;28;20069;-74
2022/02/03 07:10:53;;;;;;;8.70;1.55;;;4.70;88.60;;;;;;4980026;28;20034;-73
2022/02/03 07:13:19;;;;;;;5.65;1.50;;;4.70;88.50;;;;;;4974799;28;20097;-73
2022/02/03 07:15:45;;;;;;;15.02;2.38;;;4.80;88.80;;;;;;4974255;28;20026;-74
2022/02/03 07:18:10;;;;;;;8.23;1.77;;;4.80;88.70;;;;;;4976374;28;20031;-73
2022/02/03 07:20:36;;;;;;;13.27;3.05;;;4.80;88.70;;;;;;4973617;28;20030;-73
2022/02/03 07:23:03;;;;;;;12.30;1.83;;;4.80;88.80;;;;;;4970662;28;20433;-73
2022/02/03 07:25:30;;;;;;;9.50;1.80;;;4.90;88.70;;;;;;4975190;28;20806;-73
2022/02/03 07:27:57;;;;;;;7.32;1.80;;;5.00;88.10;;;;;;4975952;28;20066;-73
2022/02/03 07:30:23;;;;;;;11.15;1.98;;;5.00;88.40;;;;;;5005520;28;20035;-74
2022/02/03 07:32:55;;;;;;;9.57;2.22;;;5.00;88.20;;;;;;4975382;28;20038;-74
2022/02/03 07:35:20;;;;;;;11.65;1.50;;;5.00;88.00;;;;;;4995406;28;20026;-73
2022/02/03 07:37:48;;;;;;;12.60;2.53;;;5.10;88.10;;;;;;4973781;28;20041;-74
2022/02/03 07:40:14;;;;;;;11.23;1.40;;;5.10;87.90;;;;;;4973710;28;20084;-73
2022/02/03 07:42:41;;;;;;;9.68;1.65;;;5.20;87.90;;;;;;4973695;28;20042;-74
2022/02/03 07:45:07;;;;;;;11.77;1.98;;;5.20;87.80;;;;;;4973954;28;20039;-73
2022/02/03 07:47:33;;;;;;;11.55;2.40;;;5.20;87.90;;;;;;4975885;28;20459;-73
2022/02/03 07:49:59;;;;;;;19.85;2.55;;;5.20;88.40;;;;;;4986836;28;20041;-74
2022/02/03 07:52:25;;;;;;;5.93;2.50;;;5.20;88.30;;;;;;4974725;28;20134;-73
2022/02/03 07:54:51;;;;;;;9.70;2.35;;;5.30;88.20;;;;;;4977441;28;20122;-73
2022/02/03 07:57:22;;;;;;;9.88;3.28;;;5.40;87.90;;;;;;4974849;28;20030;-74
2022/02/03 07:59:48;;;;;;;14.23;2.22;;;5.50;87.50;;;;;;4972381;28;20038;-73
2022/02/03 08:02:13;;;;;;;13.63;2.15;;;5.50;87.50;;;;;;4971213;28;20054;-73
2022/02/03 08:04:45;;;;;;;6.28;2.22;;;5.60;87.50;;;;;;4974016;28;20063;-74
2022/02/03 08:07:14;;;;;;;11.15;2.17;;;5.70;87.30;;;;;;4974052;28;20509;-74
2022/02/03 08:10:02;;;;;;;5.80;2.00;;;5.80;87.10;;;;;;4974250;28;20124;-73
2022/02/03 08:12:32;;;;;;;14.27;3.15;;;5.80;86.70;;;;;;4975555;28;20034;-73
2022/02/03 08:14:59;;;;;;;12.90;2.33;;;5.90;87.00;;;;;;4973235;28;20030;-73
2022/02/03 08:17:36;;;;;;;18.92;2.60;;;6.00;87.00;;;;;;4973741;28;20047;-73
2022/02/03 08:20:07;;;;;;;14.27;2.90;;;6.00;87.10;;;;;;4971592;28;20120;-74
2022/02/03 08:23:11;;;;;;;11.57;2.10;;;6.10;87.10;;;;;;4973366;28;20042;-74
2022/02/03 08:25:23;;;;;;;14.75;2.63;;;6.10;87.30;;;;;;4973539;28;20086;-73
2022/02/03 08:32:50;;;;;;;8.77;2.40;;;6.30;88.20;;;;;;4972332;28;20035;-73
2022/02/03 08:35:22;;;;;;;16.85;3.05;;;6.30;88.40;;;;;;4975648;28;20450;-74
2022/02/03 08:40:42;;;;;;;8.95;2.83;;;6.50;88.90;;;;;;4974858;28;20038;-75
2022/02/03 08:43:09;;;;;;;16.25;3.08;;;6.40;89.10;;;;;;4996701;28;20033;-74
2022/02/03 08:45:34;;;;;;;7.93;2.90;;;6.40;89.60;;;;;;4972745;28;20069;-74
2022/02/03 08:48:00;;;;;;;18.17;2.92;;;6.40;89.70;;;;;;4974186;28;20064;-75
2022/02/03 08:50:27;;;;;;;9.45;2.38;;;6.40;90.00;;;;;;4971631;28;20069;-73
2022/02/03 10:00:45;;;;;;;8.88;3.28;;;7.60;91.40;;;;;;4992926;28;20387;-75
2022/02/03 10:03:19;;;;;;;9.43;4.00;;;7.60;91.60;;;;;;4967845;28;20038;-74
2022/02/03 10:05:57;;;;;;;20.45;3.60;;;7.60;91.50;;;;;;4974843;28;20159;-72
2022/02/03 10:08:25;;;;;;;19.35;5.53;;;7.50;91.60;;;;;;4970154;28;20030;-73
2022/02/03 10:11:08;;;;;;;15.38;4.07;;;7.60;91.80;;;;;;4975177;28;20034;-75
2022/02/03 10:13:41;;;;;;;11.95;3.33;;;7.60;91.80;;;;;;4968741;28;20034;-73
2022/02/03 10:16:07;;;;;;;13.60;3.47;;;7.70;92.10;;;;;;4975495;28;20038;-72
2022/02/03 10:18:33;;;;;;;19.85;4.00;;;7.70;92.20;;;;;;4977262;28;20042;-73
2022/02/03 10:21:00;;;;;;;16.17;3.85;;;7.70;92.20;;;;;;4975273;28;20018;-76
2022/02/03 10:23:28;;;;;;;12.43;4.30;;;7.70;92.40;;;;;;4974351;28;20105;-72
2022/02/03 10:26:06;;;;;;;12.38;4.25;;;7.70;92.40;;;;;;4976369;28;20038;-73
2022/02/03 10:28:35;;;;;;;9.93;4.05;;;7.70;92.50;;;;;;4973892;28;20039;-73
2022/02/03 10:31:05;;;;;;;23.90;11.95;;;7.70;92.60;;;;;;4975783;28;20031;-75
2022/02/03 10:33:39;;;;;;;10.88;4.63;;;7.70;92.90;;;;;;4971490;28;20445;-74
2022/02/03 10:36:19;;;;;;;15.27;4.20;;;7.70;93.00;;;;;;4972925;28;20831;-75
2022/02/03 10:54:21;;;;;;;10.20;4.32;;;7.40;93.50;;;;;;4975987;28;20051;-76
2022/02/03 11:07:30;;;;;;;13.32;3.67;;;7.40;93.90;;;;;;4975623;28;20113;-75
2022/02/03 11:10:09;;;;;;;13.77;4.47;;;7.40;93.80;;;;;;4970442;28;20403;-76
2022/02/03 11:12:36;;;;;;;8.63;3.85;;;7.50;93.80;;;;;;4987731;28;20101;-72
2022/02/03 11:15:02;;;;;;;11.57;4.45;;;7.50;93.80;;;;;;4973904;28;20035;-72
2022/02/03 11:17:29;;;;;;;11.32;4.15;;;7.40;93.90;;;;;;4973648;28;20038;-73
2022/02/03 11:19:59;;;;;;;7.65;3.72;;;7.50;94.10;;;;;;4973656;28;20101;-73
2022/02/03 11:22:32;;;;;;;6.15;3.50;;;7.50;94.10;;;;;;5006635;28;20114;-72
2022/02/03 11:25:20;;;;;;;7.88;3.97;;;7.50;94.00;;;;;;4977217;28;20815;-73
2022/02/03 11:48:16;;;;;;;5.70;3.35;;;7.80;93.60;;;;;;4974112;28;20114;-70
2022/02/03 11:53:44;;;;;;;6.68;4.32;;;7.80;93.60;;;;;;4961492;28;20035;-72
2022/02/03 11:57:10;;;;;;;9.90;3.92;;;7.90;93.70;;;;;;4977497;28;20034;-72
2022/02/03 12:02:34;;;;;;;12.95;5.30;;;7.80;93.90;;;;;;4971896;28;20046;-72
2022/02/03 12:05:03;;;;;;;6.43;3.88;;;7.80;94.00;;;;;;4971909;28;20058;-67
2022/02/03 12:13:42;;;;;;;9.13;4.28;;;7.90;94.00;;;;;;4973845;28;20030;-70
2022/02/03 12:21:36;;;;;;;8.02;4.72;;;7.90;94.00;;;;;;4969739;28;20521;-71
2022/02/03 12:24:29;;;;;;;7.30;3.80;;;8.00;94.10;;;;;;4975309;28;20098;-71
2022/02/03 12:27:11;;;;;;;8.85;4.93;;;8.00;94.00;;;;;;4976223;28;20030;-71
2022/02/03 12:29:47;;;;;;;7.35;4.32;;;8.10;93.90;;;;;;4971907;28;20042;-70
2022/02/03 12:32:27;;;;;;;11.60;5.18;;;8.10;94.00;;;;;;4972864;28;20076;-69
2022/02/03 12:43:01;;;;;;;10.95;5.05;;;8.10;94.20;;;;;;4974313;28;20043;-71
2022/02/03 12:45:27;;;;;;;8.77;4.57;;;8.10;94.30;;;;;;4968937;28;20035;-69
2022/02/03 12:48:04;;;;;;;9.57;5.57;;;8.20;94.10;;;;;;4970376;28;20110;-68
2022/02/03 12:50:35;;;;;;;10.23;4.85;;;8.30;94.20;;;;;;4972358;28;20069;-67
2022/02/03 12:53:02;;;;;;;8.48;4.28;;;8.30;94.10;;;;;;4972555;28;20034;-68
2022/02/03 12:55:33;;;;;;;11.32;5.00;;;8.30;94.20;;;;;;4973350;28;20035;-68
2022/02/03 12:58:16;;;;;;;10.75;4.97;;;8.40;94.20;;;;;;4970313;28;20027;-68
2022/02/03 13:01:32;;;;;;;9.07;5.45;;;8.50;94.10;;;;;;4972188;28;20035;-68
2022/02/03 13:03:43;;;;;;;6.63;4.40;;;8.50;94.00;;;;;;4966306;28;20061;-68
2022/02/03 13:06:16;;;;;;;10.20;5.03;;;8.50;93.90;;;;;;4975662;28;20034;-70
2022/02/03 13:08:46;;;;;;;7.80;4.70;;;8.50;93.80;;;;;;4975064;28;20043;-71
2022/02/03 13:16:48;;;;;;;8.45;6.20;;;8.50;93.90;;;;;;4972299;28;20121;-68
2022/02/03 13:19:24;;;;;;;10.07;7.22;;;8.60;94.00;;;;;;4970070;28;20161;-70
2022/02/03 13:22:11;;;;;;;7.68;4.80;;;8.60;93.90;;;;;;4970549;28;20031;-69
2022/02/03 13:25:03;;;;;;;11.80;5.00;;;8.70;93.70;;;;;;4972049;28;20126;-69
2022/02/03 13:27:53;;;;;;;7.43;5.18;;;8.80;93.70;;;;;;4968840;28;20067;-71
2022/02/03 13:30:53;;;;;;;11.50;5.20;;;8.80;93.80;;;;;;4968686;28;20030;-73
2022/02/03 13:33:29;;;;;;;9.20;5.45;;;8.90;93.80;;;;;;4969960;28;20443;-73
2022/02/03 13:36:06;;;;;;;9.90;4.68;;;8.90;93.80;;;;;;4970512;28;20061;-73
2022/02/03 13:38:55;;;;;;;8.05;4.85;;;8.90;94.10;;;;;;4971703;28;20037;-71
2022/02/03 13:41:26;;;;;;;8.85;4.85;;;8.90;93.80;;;;;;4983266;28;20030;-72
2022/02/03 13:43:52;;;;;;;8.15;5.50;;;9.00;93.70;;;;;;4974330;28;20030;-70
2022/02/03 13:46:35;;;;;;;7.95;4.75;;;9.00;93.80;;;;;;4972222;28;20752;-72
2022/02/03 13:49:01;;;;;;;9.23;5.57;;;9.00;93.80;;;;;;4973235;28;20030;-70
2022/02/03 13:51:30;;;;;;;7.65;4.80;;;9.00;93.90;;;;;;4986192;28;20050;-69
2022/02/03 13:54:09;;;;;;;7.32;4.43;;;8.90;93.90;;;;;;4972405;28;20110;-72
2022/02/03 14:11:43;;;;;;;10.35;5.47;;;8.90;94.10;;;;;;4971368;28;20474;-72
2022/02/03 14:16:50;;;;;;;7.88;5.13;;;8.90;94.30;;;;;;4972473;28;20137;-74
2022/02/03 14:21:39;;;;;;;8.38;5.05;;;8.90;94.30;;;;;;4969660;28;20051;-71
2022/02/03 14:30:02;;;;;;;7.85;4.97;;;9.00;94.20;;;;;;4949768;28;20159;-72
2022/02/03 14:32:36;;;;;;;9.80;4.85;;;8.90;94.30;;;;;;4965460;28;20134;-73
2022/02/03 14:35:05;;;;;;;12.20;5.13;;;9.00;94.40;;;;;;4972005;28;20050;-72
2022/02/03 14:42:37;;;;;;;7.35;4.97;;;9.00;94.40;;;;;;4975294;28;20049;-71
2022/02/03 14:45:05;;;;;;;8.52;5.10;;;9.00;94.30;;;;;;4978048;28;20064;-72
2022/02/03 14:47:33;;;;;;;8.38;4.97;;;9.00;94.50;;;;;;5005903;28;20026;-70
2022/02/03 14:50:01;;;;;;;9.57;5.35;;;8.90;94.50;;;;;;4976654;28;20095;-70
2022/02/03 14:52:54;;;;;;;10.73;5.43;;;8.90;94.60;;;;;;4974960;28;20129;-73
2022/02/03 14:58:14;;;;;;;10.60;5.88;;;8.90;94.70;;;;;;4991665;28;20498;-71
2022/02/03 15:00:42;;;;;;;8.57;6.00;;;8.90;94.70;;;;;;5005078;28;20035;-71
2022/02/03 15:03:08;;;;;;;11.95;6.93;;;9.00;94.70;;;;;;4976348;28;20038;-72
2022/02/03 15:05:37;;;;;;;8.13;5.45;;;8.90;94.80;;;;;;5005322;28;20101;-70
2022/02/03 15:08:05;;;;;;;7.25;5.47;;;8.90;94.90;;;;;;4977820;28;20069;-72
2022/02/03 15:13:09;;;;;;;8.32;5.53;;;9.00;94.90;;;;;;4973512;28;20034;-69
2022/02/03 15:15:34;;;;;;;12.23;5.55;;;8.90;94.80;;;;;;4976713;28;20474;-69
2022/02/03 15:18:00;;;;;;;8.70;4.57;;;8.80;95.10;;;;;;4975343;28;20045;-70
2022/02/03 15:20:26;;;;;;;9.60;5.53;;;8.80;95.20;;;;;;4975838;28;20046;-70
2022/02/03 15:22:52;;;;;;;7.70;5.40;;;8.80;95.00;;;;;;4978301;28;20144;-69
2022/02/03 15:25:19;;;;;;;8.45;5.45;;;8.80;95.20;;;;;;4975490;28;20498;-70
2022/02/03 15:27:44;;;;;;;9.40;5.38;;;8.80;95.10;;;;;;4976392;28;20031;-70
2022/02/03 15:30:11;;;;;;;7.82;5.28;;;8.90;95.20;;;;;;4974771;28;20022;-70
2022/02/03 15:32:40;;;;;;;7.68;5.15;;;8.90;95.00;;;;;;4974777;28;20039;-70
2022/02/03 15:35:11;;;;;;;9.15;5.40;;;8.90;95.00;;;;;;4990690;28;20038;-70
2022/02/03 15:37:37;;;;;;;7.35;4.93;;;8.90;94.90;;;;;;4972692;28;20039;-73
2022/02/03 15:40:09;;;;;;;9.07;5.28;;;8.90;94.80;;;;;;4972455;28;20140;-71
2022/02/03 15:42:40;;;;;;;9.10;5.47;;;9.00;94.80;;;;;;4974965;28;20041;-71
2022/02/03 15:45:07;;;;;;;7.75;4.68;;;9.00;94.80;;;;;;4975087;28;20038;-70
2022/02/03 15:47:44;;;;;;;8.95;5.55;;;8.90;94.60;;;;;;4973654;28;20038;-70
2022/02/03 16:03:32;;;;;;;12.30;7.70;;;8.90;94.50;;;;;;5002011;28;20066;-70
2022/02/03 16:17:02;;;;;;;13.32;7.97;;;9.10;94.40;;;;;;4970529;28;20672;-70
2022/02/03 16:19:38;;;;;;;14.43;8.90;;;9.10;94.40;;;;;;4972028;28;20033;-70
2022/02/03 16:22:15;;;;;;;13.87;7.57;;;9.10;94.30;;;;;;4975899;28;20153;-72
2022/02/03 16:24:48;;;;;;;13.23;6.68;;;9.20;94.20;;;;;;4972762;28;20828;-72
2022/02/03 16:51:54;;;;;;;9.77;6.47;;;9.20;94.10;;;;;;4972117;28;20129;-71
2022/02/03 16:54:20;;;;;;;11.30;7.35;;;9.10;94.00;;;;;;4972457;28;20041;-71
2022/02/03 16:56:50;;;;;;;12.23;7.47;;;9.10;94.10;;;;;;4971940;28;20027;-71
2022/02/03 16:59:15;;;;;;;10.90;6.88;;;9.20;93.90;;;;;;4973893;28;20080;-70
2022/02/03 17:01:41;;;;;;;11.57;6.97;;;9.10;93.90;;;;;;4971844;28;20418;-68
2022/02/03 17:04:07;;;;;;;9.70;6.53;;;9.10;94.10;;;;;;5006107;28;20030;-71
2022/02/03 17:06:32;;;;;;;13.27;6.68;;;9.10;94.00;;;;;;4972073;28;20491;-71
2022/02/03 17:08:58;;;;;;;16.10;8.95;;;9.10;94.10;;;;;;4974394;28;20033;-68
2022/02/03 17:11:24;;;;;;;14.35;8.07;;;9.00;94.10;;;;;;4971371;28;20027;-71
2022/02/03 17:13:49;;;;;;;11.57;7.63;;;9.10;94.10;;;;;;4975498;28;20510;-71
2022/02/03 17:16:22;;;;;;;12.27;7.25;;;9.10;94.20;;;;;;4974482;28;20030;-72
2022/02/03 17:18:50;;;;;;;13.95;7.38;;;9.00;94.20;;;;;;4972060;28;20045;-70
2022/02/03 17:21:17;;;;;;;15.13;7.75;;;9.00;94.30;;;;;;4975030;28;20592;-70
2022/02/03 17:23:44;;;;;;;12.48;7.72;;;9.00;94.40;;;;;;4974723;28;20035;-71
2022/02/03 17:26:17;;;;;;;12.38;7.65;;;8.90;94.60;;;;;;5003808;28;20035;-74
2022/02/03 18:09:20;;;;;;;14.07;7.82;;;9.00;94.60;;;;;;4939590;28;20979;-68
2022/02/03 18:25:44;;;;;;;12.13;7.38;;;9.00;94.70;;;;;;4970235;28;20039;-73
2022/02/03 18:54:55;;;;;;;11.13;7.15;;;8.90;95.10;;;;;;4974353;28;20049;-67
2022/02/03 19:22:36;;;;;;;12.32;7.57;;;9.10;94.40;;;;;;4971447;28;20042;-75
2022/02/03 20:10:22;;;;;;;12.60;7.40;;;9.00;95.10;;;;;;4974545;28;20034;-76
2022/02/03 20:12:48;;;;;;;13.55;7.68;;;9.00;95.00;;;;;;4989829;28;20121;-76
2022/02/03 20:15:18;;;;;;;15.02;8.43;;;9.00;94.90;;;;;;4972229;28;20149;-73
2022/02/03 20:17:43;;;;;;;13.27;7.30;;;9.00;94.90;;;;;;4973749;28;20119;-71
2022/02/03 20:20:09;;;;;;;12.85;7.40;;;9.00;94.80;;;;;;4973005;28;20500;-74
2022/02/03 20:22:38;;;;;;;13.75;7.78;;;9.00;94.80;;;;;;4971383;28;20134;-73
2022/02/03 20:25:05;;;;;;;11.63;7.00;;;9.00;94.90;;;;;;4970945;28;20069;-74
2022/02/03 20:27:32;;;;;;;14.65;7.90;;;9.00;94.90;;;;;;5002821;28;20765;-72
2022/02/03 20:29:58;;;;;;;12.20;7.88;;;9.00;94.90;;;;;;4973631;28;20395;-72
2022/02/03 20:32:25;;;;;;;12.40;7.50;;;9.00;94.90;;;;;;5002428;28;20045;-73
2022/02/03 20:34:51;;;;;;;15.55;7.65;;;9.00;94.90;;;;;;4988090;28;20384;-73
2022/02/03 20:37:17;;;;;;;14.95;8.25;;;9.00;94.80;;;;;;4972934;28;20054;-72
2022/02/03 20:39:43;;;;;;;15.07;7.75;;;9.00;94.90;;;;;;4971860;28;20044;-72
2022/02/03 20:42:15;;;;;;;14.45;8.13;;;8.90;95.10;;;;;;4976317;28;20042;-72
2022/02/03 20:44:42;;;;;;;13.30;8.48;;;8.90;95.10;;;;;;4970335;28;20043;-73
2022/02/03 20:47:07;;;;;;;15.57;8.55;;;8.80;95.40;;;;;;4974996;28;20026;-73
2022/02/03 20:49:34;;;;;;;13.77;7.40;;;8.80;95.40;;;;;;4972161;28;20035;-73
2022/02/03 20:52:00;;;;;;;13.00;7.97;;;8.80;95.40;;;;;;4971599;28;20034;-74
2022/02/03 20:54:26;;;;;;;16.00;8.52;;;8.90;95.40;;;;;;4976288;28;20044;-72
2022/02/03 20:56:52;;;;;;;15.48;8.95;;;8.90;95.30;;;;;;4971477;28;20031;-72
2022/02/03 20:59:24;;;;;;;16.52;8.98;;;8.80;95.30;;;;;;4974492;28;20026;-69
2022/02/03 21:01:53;;;;;;;14.50;8.18;;;8.80;95.40;;;;;;4973304;28;20849;-72
2022/02/03 21:04:31;;;;;;;16.85;8.07;;;8.90;95.30;;;;;;4982172;28;20038;-71
2022/02/03 21:06:57;;;;;;;13.38;7.70;;;8.90;95.40;;;;;;4973725;28;20026;-72
2022/02/03 21:09:23;;;;;;;13.63;7.97;;;8.90;95.50;;;;;;4969168;28;20686;-73
2022/02/03 21:11:48;;;;;;;14.15;8.43;;;9.00;95.30;;;;;;4971922;28;20034;-73
2022/02/03 21:14:14;;;;;;;15.07;8.35;;;9.00;95.20;;;;;;5002701;28;20439;-73
2022/02/03 21:16:40;;;;;;;13.50;8.40;;;9.00;95.10;;;;;;5002693;28;20253;-72
2022/02/03 21:19:06;;;;;;;13.80;7.70;;;8.90;95.10;;;;;;4973933;28;20914;-70
2022/02/03 21:21:32;;;;;;;13.02;7.65;;;8.90;95.00;;;;;;4984486;28;20078;-72
2022/02/03 21:23:58;;;;;;;11.60;7.30;;;8.90;95.30;;;;;;4987288;28;20084;-75
2022/02/03 21:26:33;;;;;;;11.10;7.03;;;9.00;95.10;;;;;;4970782;28;20034;-75
2022/02/03 21:28:59;;;;;;;10.77;7.13;;;9.00;95.00;;;;;;4973556;28;20130;-73
2022/02/03 21:31:25;;;;;;;11.93;7.03;;;9.00;94.90;;;;;;4970025;28;20097;-75
2022/02/03 21:33:55;;;;;;;10.95;6.75;;;9.10;94.80;;;;;;4973592;28;20038;-74
2022/02/03 21:36:22;;;;;;;9.85;6.28;;;9.10;94.60;;;;;;4986451;28;20760;-73
2022/02/03 21:38:48;;;;;;;7.82;5.47;;;9.00;94.50;;;;;;4971251;28;20063;-73
2022/02/03 21:41:17;;;;;;;7.25;4.78;;;9.00;94.40;;;;;;4974270;28;20097;-72
2022/02/03 21:43:43;;;;;;;7.75;4.93;;;9.00;94.40;;;;;;5007596;28;20077;-72
2022/02/03 21:46:10;;;;;;;6.75;4.55;;;9.00;94.30;;;;;;4990670;28;20023;-72
2022/02/03 21:48:39;;;;;;;6.40;4.13;;;8.90;94.00;;;;;;4975497;28;20038;-72
2022/02/03 21:51:05;;;;;;;7.53;5.07;;;8.90;94.10;;;;;;4976772;28;20034;-74
2022/02/03 21:53:33;;;;;;;6.85;4.15;;;8.90;94.10;;;;;;4977482;28;20506;-70
2022/02/03 21:56:00;;;;;;;7.85;4.70;;;8.80;94.00;;;;;;4977192;28;20069;-72
2022/02/03 21:58:27;;;;;;;6.15;4.18;;;8.80;94.00;;;;;;4974809;28;20497;-74
2022/02/03 22:00:57;;;;;;;6.70;4.43;;;8.90;94.00;;;;;;4977243;28;20027;-75
2022/02/03 22:03:26;;;;;;;5.72;4.28;;;8.80;94.00;;;;;;4988507;28;20050;-75
2022/02/03 22:05:54;;;;;;;7.82;4.55;;;8.80;93.90;;;;;;4972310;28;20118;-74
2022/02/03 22:08:20;;;;;;;8.68;5.90;;;8.80;93.80;;;;;;4975143;28;20034;-75
2022/02/03 22:10:46;;;;;;;7.18;4.55;;;8.80;93.90;;;;;;4973672;28;20026;-75
2022/02/03 22:13:12;;;;;;;7.93;5.35;;;8.70;93.90;;;;;;4976203;28;20034;-74
2022/02/03 22:15:40;;;;;;;8.38;5.55;;;8.70;94.00;;;;;;4973827;28;20126;-74
2022/02/03 22:18:11;;;;;;;7.68;5.13;;;8.80;94.10;;;;;;4976720;28;20826;-75
2022/02/03 22:20:41;;;;;;;9.13;6.25;;;8.80;94.00;;;;;;4974755;28;20036;-75
2022/02/03 22:49:50;;;;;;;9.90;6.20;;;8.70;94.00;;;;;;4972164;28;20126;-75
2022/02/03 22:52:17;;;;;;;9.68;6.45;;;8.70;94.00;;;;;;4973702;28;20165;-74
2022/02/03 22:54:43;;;;;;;11.82;6.57;;;8.70;94.10;;;;;;5005956;28;20180;-72
2022/02/03 22:57:08;;;;;;;10.02;6.22;;;8.70;94.10;;;;;;4975561;28;20656;-72
2022/02/03 23:02:04;;;;;;;10.43;5.90;;;8.70;94.10;;;;;;4976585;28;20042;-73
2022/02/03 23:04:31;;;;;;;11.13;7.15;;;8.70;94.10;;;;;;5004084;28;20359;-75
2022/02/03 23:07:06;;;;;;;11.32;6.88;;;8.70;94.10;;;;;;4976076;28;20134;-74
2022/02/03 23:09:53;;;;;;;9.93;6.60;;;8.70;94.10;;;;;;4972435;28;20034;-73
2022/02/03 23:20:17;;;;;;;12.48;6.82;;;8.80;93.90;;;;;;4976292;28;20034;-73
2022/02/03 23:22:43;;;;;;;11.30;6.93;;;8.70;93.90;;;;;;4970309;28;20141;-76
2022/02/03 23:25:14;;;;;;;13.52;7.35;;;8.70;94.00;;;;;;4976251;28;20029;-73
2022/02/03 23:30:18;;;;;;;14.90;8.32;;;8.70;94.00;;;;;;4970072;28;20109;-74
2022/02/03 23:32:45;;;;;;;11.75;7.85;;;8.70;94.10;;;;;;5005873;28;20053;-73
2022/02/03 23:35:29;;;;;;;13.27;8.07;;;8.70;94.00;;;;;;4988366;28;20027;-73
2022/02/03 23:38:03;;;;;;;12.38;8.43;;;8.70;94.30;;;;;;4974420;28;20454;-73
